sensor_id;sensor_type;location;lat;lon;timestamp;P1;durP1;ratioP1;P2;durP2;ratioP2
39864;SDS011;25538;48.392;9.976;2022-12-20T00:00:26;50.17;;;36.30;;
39864;SDS011;25538;48.392;9.976;2022-12-20T00:02:52;50.00;;;33.63;;
39864;SDS011;25538;48.392;9.976;2022-12-20T00:05:18;49.60;;;32.90;;
39864;SDS011;25538;48.392;9.976;2022-12-20T00:07:44;47.58;;;34.03;;
39864;SDS011;25538;48.392;9.976;2022-12-20T00:10:10;44.97;;;35.20;;
39864;SDS011;25538;48.392;9.976;2022-12-20T00:12:36;52.03;;;34.35;;
39864;SDS011;25538;48.392;9.976;2022-12-20T00:15:02;51.17;;;34.77;;
39864;SDS011;25538;48.392;9.976;2022-12-20T00:17:29;47.25;;;34.50;;
39864;SDS011;25538;48.392;9.976;2022-12-20T00:19:55;53.80;;;34.65;;
39864;SDS011;25538;48.392;9.976;2022-12-20T00:22:21;47.70;;;33.87;;
39864;SDS011;25538;48.392;9.976;2022-12-20T00:24:46;46.73;;;33.80;;
39864;SDS011;25538;48.392;9.976;2022-12-20T00:27:12;43.60;;;32.90;;
39864;SDS011;25538;48.392;9.976;2022-12-20T00:29:39;43.65;;;32.83;;
39864;SDS011;25538;48.392;9.976;2022-12-20T00:32:05;41.10;;;30.67;;
39864;SDS011;25538;48.392;9.976;2022-12-20T00:34:31;44.37;;;32.37;;
39864;SDS011;25538;48.392;9.976;2022-12-20T00:36:57;42.63;;;32.37;;
39864;SDS011;25538;48.392;9.976;2022-12-20T00:39:22;46.23;;;31.40;;
39864;SDS011;25538;48.392;9.976;2022-12-20T00:41:48;38.77;;;30.63;;
39864;SDS011;25538;48.392;9.976;2022-12-20T00:44:14;40.23;;;30.13;;
39864;SDS011;25538;48.392;9.976;2022-12-20T00:46:40;47.50;;;31.83;;
39864;SDS011;25538;48.392;9.976;2022-12-20T00:49:06;40.70;;;31.70;;
39864;SDS011;25538;48.392;9.976;2022-12-20T00:51:32;42.73;;;30.80;;
39864;SDS011;25538;48.392;9.976;2022-12-20T00:53:58;44.20;;;30.67;;
39864;SDS011;25538;48.392;9.976;2022-12-20T00:56:23;51.33;;;33.10;;
39864;SDS011;25538;48.392;9.976;2022-12-20T00:58:49;39.55;;;29.60;;
39864;SDS011;25538;48.392;9.976;2022-12-20T01:01:21;47.38;;;31.80;;
39864;SDS011;25538;48.392;9.976;2022-12-20T01:03:49;42.35;;;32.28;;
39864;SDS011;25538;48.392;9.976;2022-12-20T01:06:16;45.60;;;32.20;;
39864;SDS011;25538;48.392;9.976;2022-12-20T01:08:42;42.70;;;30.75;;
39864;SDS011;25538;48.392;9.976;2022-12-20T01:11:16;43.45;;;31.42;;
39864;SDS011;25538;48.392;9.976;2022-12-20T01:13:48;42.17;;;30.77;;
39864;SDS011;25538;48.392;9.976;2022-12-20T01:16:23;40.38;;;31.45;;
39864;SDS011;25538;48.392;9.976;2022-12-20T01:18:58;44.97;;;31.65;;
39864;SDS011;25538;48.392;9.976;2022-12-20T01:21:25;42.10;;;30.90;;
39864;SDS011;25538;48.392;9.976;2022-12-20T01:23:52;39.70;;;29.70;;
39864;SDS011;25538;48.392;9.976;2022-12-20T01:26:20;44.63;;;31.27;;
39864;SDS011;25538;48.392;9.976;2022-12-20T01:28:50;43.78;;;32.15;;
39864;SDS011;25538;48.392;9.976;2022-12-20T01:31:18;46.78;;;32.17;;
39864;SDS011;25538;48.392;9.976;2022-12-20T01:33:45;42.30;;;29.92;;
39864;SDS011;25538;48.392;9.976;2022-12-20T01:36:16;45.80;;;32.28;;
39864;SDS011;25538;48.392;9.976;2022-12-20T01:38:43;45.85;;;32.42;;
39864;SDS011;25538;48.392;9.976;2022-12-20T01:41:17;44.92;;;29.33;;
39864;SDS011;25538;48.392;9.976;2022-12-20T01:43:49;46.28;;;33.70;;
39864;SDS011;25538;48.392;9.976;2022-12-20T01:46:22;45.28;;;31.13;;
39864;SDS011;25538;48.392;9.976;2022-12-20T01:48:55;41.40;;;30.42;;
39864;SDS011;25538;48.392;9.976;2022-12-20T01:51:34;45.35;;;32.38;;
39864;SDS011;25538;48.392;9.976;2022-12-20T01:54:05;43.42;;;31.83;;
39864;SDS011;25538;48.392;9.976;2022-12-20T01:56:35;44.55;;;30.95;;
39864;SDS011;25538;48.392;9.976;2022-12-20T01:59:02;39.95;;;31.48;;
39864;SDS011;25538;48.392;9.976;2022-12-20T02:01:28;42.97;;;31.73;;
39864;SDS011;25538;48.392;9.976;2022-12-20T02:03:54;41.40;;;32.90;;
39864;SDS011;25538;48.392;9.976;2022-12-20T02:06:21;46.70;;;32.00;;
39864;SDS011;25538;48.392;9.976;2022-12-20T02:08:50;44.65;;;32.03;;
39864;SDS011;25538;48.392;9.976;2022-12-20T02:16:34;46.42;;;32.03;;
39864;SDS011;25538;48.392;9.976;2022-12-20T02:19:35;46.45;;;33.13;;
39864;SDS011;25538;48.392;9.976;2022-12-20T02:22:40;41.78;;;30.67;;
39864;SDS011;25538;48.392;9.976;2022-12-20T02:30:37;46.05;;;32.83;;
39864;SDS011;25538;48.392;9.976;2022-12-20T02:33:09;41.90;;;31.50;;
39864;SDS011;25538;48.392;9.976;2022-12-20T02:35:37;45.17;;;32.92;;
39864;SDS011;25538;48.392;9.976;2022-12-20T02:38:23;41.65;;;31.33;;
39864;SDS011;25538;48.392;9.976;2022-12-20T02:41:08;47.90;;;31.98;;
39864;SDS011;25538;48.392;9.976;2022-12-20T02:43:41;41.22;;;30.52;;
39864;SDS011;25538;48.392;9.976;2022-12-20T02:46:28;47.83;;;30.80;;
39864;SDS011;25538;48.392;9.976;2022-12-20T02:48:58;44.83;;;34.15;;
39864;SDS011;25538;48.392;9.976;2022-12-20T02:51:27;40.72;;;31.67;;
39864;SDS011;25538;48.392;9.976;2022-12-20T02:53:57;41.10;;;31.60;;
39864;SDS011;25538;48.392;9.976;2022-12-20T02:56:31;43.53;;;32.88;;
39864;SDS011;25538;48.392;9.976;2022-12-20T02:59:02;38.17;;;30.67;;
39864;SDS011;25538;48.392;9.976;2022-12-20T03:01:45;40.03;;;30.27;;
39864;SDS011;25538;48.392;9.976;2022-12-20T03:04:15;40.05;;;30.67;;
39864;SDS011;25538;48.392;9.976;2022-12-20T03:06:57;40.80;;;30.60;;
39864;SDS011;25538;48.392;9.976;2022-12-20T03:09:36;44.50;;;31.83;;
39864;SDS011;25538;48.392;9.976;2022-12-20T03:12:03;45.00;;;32.75;;
39864;SDS011;25538;48.392;9.976;2022-12-20T03:14:30;43.58;;;32.65;;
39864;SDS011;25538;48.392;9.976;2022-12-20T03:16:56;44.57;;;30.23;;
39864;SDS011;25538;48.392;9.976;2022-12-20T03:19:21;44.27;;;31.07;;
39864;SDS011;25538;48.392;9.976;2022-12-20T03:21:47;47.13;;;33.37;;
39864;SDS011;25538;48.392;9.976;2022-12-20T03:24:13;48.77;;;34.10;;
39864;SDS011;25538;48.392;9.976;2022-12-20T03:26:40;41.60;;;31.80;;
39864;SDS011;25538;48.392;9.976;2022-12-20T03:29:06;43.45;;;32.10;;
39864;SDS011;25538;48.392;9.976;2022-12-20T03:31:32;41.75;;;33.10;;
39864;SDS011;25538;48.392;9.976;2022-12-20T03:33:58;45.42;;;30.77;;
39864;SDS011;25538;48.392;9.976;2022-12-20T03:36:24;39.33;;;30.43;;
39864;SDS011;25538;48.392;9.976;2022-12-20T03:38:50;43.28;;;30.50;;
39864;SDS011;25538;48.392;9.976;2022-12-20T03:41:16;47.25;;;32.20;;
39864;SDS011;25538;48.392;9.976;2022-12-20T03:43:43;43.30;;;33.30;;
39864;SDS011;25538;48.392;9.976;2022-12-20T03:46:09;46.20;;;31.65;;
39864;SDS011;25538;48.392;9.976;2022-12-20T03:48:35;40.33;;;29.50;;
39864;SDS011;25538;48.392;9.976;2022-12-20T03:51:01;45.47;;;31.83;;
39864;SDS011;25538;48.392;9.976;2022-12-20T03:53:27;43.70;;;31.05;;
39864;SDS011;25538;48.392;9.976;2022-12-20T03:55:52;47.60;;;34.07;;
39864;SDS011;25538;48.392;9.976;2022-12-20T03:58:19;55.28;;;34.47;;
39864;SDS011;25538;48.392;9.976;2022-12-20T04:00:45;46.60;;;33.83;;
39864;SDS011;25538;48.392;9.976;2022-12-20T04:05:43;55.60;;;32.22;;
39864;SDS011;25538;48.392;9.976;2022-12-20T04:08:09;51.08;;;34.47;;
39864;SDS011;25538;48.392;9.976;2022-12-20T04:10:35;44.30;;;32.93;;
39864;SDS011;25538;48.392;9.976;2022-12-20T04:13:20;40.88;;;32.05;;
39864;SDS011;25538;48.392;9.976;2022-12-20T04:15:46;49.30;;;31.33;;
39864;SDS011;25538;48.392;9.976;2022-12-20T04:18:12;47.53;;;31.00;;
39864;SDS011;25538;48.392;9.976;2022-12-20T04:20:38;42.27;;;31.37;;
39864;SDS011;25538;48.392;9.976;2022-12-20T04:23:04;42.33;;;31.40;;
39864;SDS011;25538;48.392;9.976;2022-12-20T04:25:30;45.47;;;32.73;;
39864;SDS011;25538;48.392;9.976;2022-12-20T04:27:56;46.83;;;33.27;;
39864;SDS011;25538;48.392;9.976;2022-12-20T04:30:21;45.53;;;33.50;;
39864;SDS011;25538;48.392;9.976;2022-12-20T04:32:47;35.97;;;29.77;;
39864;SDS011;25538;48.392;9.976;2022-12-20T04:35:13;41.63;;;29.40;;
39864;SDS011;25538;48.392;9.976;2022-12-20T04:37:39;38.87;;;29.10;;
39864;SDS011;25538;48.392;9.976;2022-12-20T04:40:05;39.17;;;27.57;;
39864;SDS011;25538;48.392;9.976;2022-12-20T04:42:32;37.40;;;27.98;;
39864;SDS011;25538;48.392;9.976;2022-12-20T04:44:58;48.10;;;30.20;;
39864;SDS011;25538;48.392;9.976;2022-12-20T04:47:23;41.10;;;30.10;;
39864;SDS011;25538;48.392;9.976;2022-12-20T04:49:49;40.60;;;29.27;;
39864;SDS011;25538;48.392;9.976;2022-12-20T04:52:15;45.23;;;29.90;;
39864;SDS011;25538;48.392;9.976;2022-12-20T04:55:00;43.60;;;29.95;;
39864;SDS011;25538;48.392;9.976;2022-12-20T04:57:26;39.97;;;28.65;;
39864;SDS011;25538;48.392;9.976;2022-12-20T04:59:52;37.07;;;30.50;;
39864;SDS011;25538;48.392;9.976;2022-12-20T05:02:18;39.08;;;27.55;;
39864;SDS011;25538;48.392;9.976;2022-12-20T05:04:44;39.20;;;28.97;;
39864;SDS011;25538;48.392;9.976;2022-12-20T05:07:10;39.40;;;28.90;;
39864;SDS011;25538;48.392;9.976;2022-12-20T05:09:36;38.93;;;28.97;;
39864;SDS011;25538;48.392;9.976;2022-12-20T05:12:02;39.83;;;28.17;;
39864;SDS011;25538;48.392;9.976;2022-12-20T05:14:27;34.70;;;25.55;;
39864;SDS011;25538;48.392;9.976;2022-12-20T05:16:53;38.50;;;29.10;;
39864;SDS011;25538;48.392;9.976;2022-12-20T05:19:19;41.20;;;29.40;;
39864;SDS011;25538;48.392;9.976;2022-12-20T05:21:45;39.60;;;29.90;;
39864;SDS011;25538;48.392;9.976;2022-12-20T05:24:29;37.53;;;27.92;;
39864;SDS011;25538;48.392;9.976;2022-12-20T05:27:13;34.67;;;26.95;;
39864;SDS011;25538;48.392;9.976;2022-12-20T05:29:39;39.03;;;27.80;;
39864;SDS011;25538;48.392;9.976;2022-12-20T05:32:05;39.00;;;26.10;;
39864;SDS011;25538;48.392;9.976;2022-12-20T05:34:31;35.20;;;25.40;;
39864;SDS011;25538;48.392;9.976;2022-12-20T05:36:57;40.33;;;27.00;;
39864;SDS011;25538;48.392;9.976;2022-12-20T05:39:23;39.30;;;27.87;;
39864;SDS011;25538;48.392;9.976;2022-12-20T05:41:49;34.13;;;26.60;;
39864;SDS011;25538;48.392;9.976;2022-12-20T05:44:15;37.50;;;26.60;;
39864;SDS011;25538;48.392;9.976;2022-12-20T05:46:41;43.08;;;29.73;;
39864;SDS011;25538;48.392;9.976;2022-12-20T05:49:07;42.70;;;27.70;;
39864;SDS011;25538;48.392;9.976;2022-12-20T05:51:33;34.40;;;27.10;;
39864;SDS011;25538;48.392;9.976;2022-12-20T05:53:59;40.50;;;27.90;;
39864;SDS011;25538;48.392;9.976;2022-12-20T05:56:25;38.40;;;27.80;;
39864;SDS011;25538;48.392;9.976;2022-12-20T05:58:51;38.53;;;28.30;;
39864;SDS011;25538;48.392;9.976;2022-12-20T06:01:17;31.97;;;24.87;;
39864;SDS011;25538;48.392;9.976;2022-12-20T06:03:43;38.13;;;28.57;;
39864;SDS011;25538;48.392;9.976;2022-12-20T06:06:10;35.58;;;27.33;;
39864;SDS011;25538;48.392;9.976;2022-12-20T06:08:36;39.80;;;28.05;;
39864;SDS011;25538;48.392;9.976;2022-12-20T06:11:01;36.17;;;27.60;;
39864;SDS011;25538;48.392;9.976;2022-12-20T06:13:29;35.72;;;26.48;;
39864;SDS011;25538;48.392;9.976;2022-12-20T06:15:55;36.90;;;26.95;;
39864;SDS011;25538;48.392;9.976;2022-12-20T06:18:21;36.30;;;27.23;;
39864;SDS011;25538;48.392;9.976;2022-12-20T06:20:50;40.50;;;27.27;;
39864;SDS011;25538;48.392;9.976;2022-12-20T06:23:17;37.08;;;28.17;;
39864;SDS011;25538;48.392;9.976;2022-12-20T06:25:44;38.05;;;27.73;;
39864;SDS011;25538;48.392;9.976;2022-12-20T06:28:11;41.70;;;30.35;;
39864;SDS011;25538;48.392;9.976;2022-12-20T06:30:36;36.70;;;29.20;;
39864;SDS011;25538;48.392;9.976;2022-12-20T06:33:02;41.00;;;30.47;;
39864;SDS011;25538;48.392;9.976;2022-12-20T06:35:29;40.85;;;30.33;;
39864;SDS011;25538;48.392;9.976;2022-12-20T06:37:55;37.47;;;28.58;;
39864;SDS011;25538;48.392;9.976;2022-12-20T06:40:21;39.47;;;29.30;;
39864;SDS011;25538;48.392;9.976;2022-12-20T06:42:47;39.70;;;28.55;;
39864;SDS011;25538;48.392;9.976;2022-12-20T06:45:14;38.38;;;29.42;;
39864;SDS011;25538;48.392;9.976;2022-12-20T06:47:40;37.67;;;28.20;;
39864;SDS011;25538;48.392;9.976;2022-12-20T06:50:06;42.53;;;29.93;;
39864;SDS011;25538;48.392;9.976;2022-12-20T06:52:33;41.47;;;30.08;;
39864;SDS011;25538;48.392;9.976;2022-12-20T06:54:59;37.37;;;28.47;;
39864;SDS011;25538;48.392;9.976;2022-12-20T06:57:25;37.92;;;29.45;;
39864;SDS011;25538;48.392;9.976;2022-12-20T06:59:50;39.40;;;28.87;;
39864;SDS011;25538;48.392;9.976;2022-12-20T07:02:16;38.07;;;27.53;;
39864;SDS011;25538;48.392;9.976;2022-12-20T07:04:42;40.57;;;29.83;;
39864;SDS011;25538;48.392;9.976;2022-12-20T07:07:08;34.40;;;26.67;;
39864;SDS011;25538;48.392;9.976;2022-12-20T07:09:35;37.50;;;28.42;;
39864;SDS011;25538;48.392;9.976;2022-12-20T07:12:02;37.60;;;26.45;;
39864;SDS011;25538;48.392;9.976;2022-12-20T07:14:28;41.80;;;29.23;;
39864;SDS011;25538;48.392;9.976;2022-12-20T07:16:54;35.92;;;27.23;;
39864;SDS011;25538;48.392;9.976;2022-12-20T07:19:20;38.45;;;28.17;;
39864;SDS011;25538;48.392;9.976;2022-12-20T07:21:46;36.25;;;28.00;;
39864;SDS011;25538;48.392;9.976;2022-12-20T07:24:12;37.45;;;28.70;;
39864;SDS011;25538;48.392;9.976;2022-12-20T07:26:38;35.13;;;26.85;;
39864;SDS011;25538;48.392;9.976;2022-12-20T07:29:04;38.77;;;29.67;;
39864;SDS011;25538;48.392;9.976;2022-12-20T07:31:30;39.35;;;27.90;;
39864;SDS011;25538;48.392;9.976;2022-12-20T07:33:56;39.13;;;28.02;;
39864;SDS011;25538;48.392;9.976;2022-12-20T07:36:22;40.63;;;29.67;;
39864;SDS011;25538;48.392;9.976;2022-12-20T07:38:48;36.37;;;26.67;;
39864;SDS011;25538;48.392;9.976;2022-12-20T07:41:15;36.15;;;27.23;;
39864;SDS011;25538;48.392;9.976;2022-12-20T07:43:45;36.53;;;27.30;;
39864;SDS011;25538;48.392;9.976;2022-12-20T07:46:12;36.40;;;29.30;;
39864;SDS011;25538;48.392;9.976;2022-12-20T07:48:39;37.35;;;27.63;;
39864;SDS011;25538;48.392;9.976;2022-12-20T07:51:05;37.70;;;29.27;;
39864;SDS011;25538;48.392;9.976;2022-12-20T07:53:43;32.75;;;28.35;;
39864;SDS011;25538;48.392;9.976;2022-12-20T07:56:20;36.58;;;29.77;;
39864;SDS011;25538;48.392;9.976;2022-12-20T07:58:47;32.58;;;27.08;;
39864;SDS011;25538;48.392;9.976;2022-12-20T08:01:16;41.05;;;31.10;;
39864;SDS011;25538;48.392;9.976;2022-12-20T08:03:47;39.35;;;30.88;;
39864;SDS011;25538;48.392;9.976;2022-12-20T08:06:17;37.25;;;30.90;;
39864;SDS011;25538;48.392;9.976;2022-12-20T08:08:45;36.75;;;29.27;;
39864;SDS011;25538;48.392;9.976;2022-12-20T08:11:15;37.55;;;26.08;;
39864;SDS011;25538;48.392;9.976;2022-12-20T08:13:42;39.10;;;28.80;;
39864;SDS011;25538;48.392;9.976;2022-12-20T08:16:09;38.00;;;26.85;;
39864;SDS011;25538;48.392;9.976;2022-12-20T08:18:35;34.85;;;26.70;;
39864;SDS011;25538;48.392;9.976;2022-12-20T08:21:01;38.80;;;28.27;;
39864;SDS011;25538;48.392;9.976;2022-12-20T08:23:26;41.73;;;28.93;;
39864;SDS011;25538;48.392;9.976;2022-12-20T08:25:52;46.83;;;29.97;;
39864;SDS011;25538;48.392;9.976;2022-12-20T08:28:18;51.20;;;35.13;;
39864;SDS011;25538;48.392;9.976;2022-12-20T08:30:44;43.65;;;33.20;;
39864;SDS011;25538;48.392;9.976;2022-12-20T08:33:10;42.90;;;31.08;;
39864;SDS011;25538;48.392;9.976;2022-12-20T08:35:36;43.73;;;31.13;;
39864;SDS011;25538;48.392;9.976;2022-12-20T08:38:02;38.50;;;30.13;;
39864;SDS011;25538;48.392;9.976;2022-12-20T08:40:28;42.10;;;30.50;;
39864;SDS011;25538;48.392;9.976;2022-12-20T08:42:54;39.37;;;29.60;;
39864;SDS011;25538;48.392;9.976;2022-12-20T08:45:20;34.93;;;27.43;;
39864;SDS011;25538;48.392;9.976;2022-12-20T08:47:46;29.97;;;24.77;;
39864;SDS011;25538;48.392;9.976;2022-12-20T08:50:12;29.95;;;24.00;;
39864;SDS011;25538;48.392;9.976;2022-12-20T08:52:38;27.47;;;24.47;;
39864;SDS011;25538;48.392;9.976;2022-12-20T08:55:04;28.35;;;22.60;;
39864;SDS011;25538;48.392;9.976;2022-12-20T08:57:30;31.48;;;25.65;;
39864;SDS011;25538;48.392;9.976;2022-12-20T08:59:56;31.08;;;26.90;;
39864;SDS011;25538;48.392;9.976;2022-12-20T09:02:22;30.60;;;24.60;;
39864;SDS011;25538;48.392;9.976;2022-12-20T09:04:48;32.90;;;26.37;;
39864;SDS011;25538;48.392;9.976;2022-12-20T09:07:14;32.13;;;23.83;;
39864;SDS011;25538;48.392;9.976;2022-12-20T09:09:40;36.47;;;26.73;;
39864;SDS011;25538;48.392;9.976;2022-12-20T09:12:06;32.20;;;26.30;;
39864;SDS011;25538;48.392;9.976;2022-12-20T09:14:32;32.37;;;26.80;;
39864;SDS011;25538;48.392;9.976;2022-12-20T09:16:58;36.60;;;28.10;;
39864;SDS011;25538;48.392;9.976;2022-12-20T09:19:24;37.73;;;28.17;;
39864;SDS011;25538;48.392;9.976;2022-12-20T09:21:50;41.40;;;29.40;;
39864;SDS011;25538;48.392;9.976;2022-12-20T09:24:15;43.30;;;30.10;;
39864;SDS011;25538;48.392;9.976;2022-12-20T09:26:41;36.30;;;29.67;;
39864;SDS011;25538;48.392;9.976;2022-12-20T09:29:07;37.63;;;28.13;;
39864;SDS011;25538;48.392;9.976;2022-12-20T09:31:33;35.90;;;29.40;;
39864;SDS011;25538;48.392;9.976;2022-12-20T09:33:59;35.60;;;28.88;;
39864;SDS011;25538;48.392;9.976;2022-12-20T09:36:26;36.97;;;27.90;;
39864;SDS011;25538;48.392;9.976;2022-12-20T09:38:53;39.95;;;28.00;;
39864;SDS011;25538;48.392;9.976;2022-12-20T09:44:10;37.17;;;27.85;;
39864;SDS011;25538;48.392;9.976;2022-12-20T09:46:43;38.42;;;28.70;;
39864;SDS011;25538;48.392;9.976;2022-12-20T09:49:16;35.17;;;26.55;;
39864;SDS011;25538;48.392;9.976;2022-12-20T09:51:58;36.33;;;27.33;;
39864;SDS011;25538;48.392;9.976;2022-12-20T09:54:47;34.90;;;28.30;;
39864;SDS011;25538;48.392;9.976;2022-12-20T10:00:17;36.13;;;28.50;;
39864;SDS011;25538;48.392;9.976;2022-12-20T10:02:45;37.65;;;27.27;;
39864;SDS011;25538;48.392;9.976;2022-12-20T10:10:37;37.08;;;28.30;;
39864;SDS011;25538;48.392;9.976;2022-12-20T10:13:23;38.15;;;28.45;;
39864;SDS011;25538;48.392;9.976;2022-12-20T10:24:18;34.15;;;27.77;;
39864;SDS011;25538;48.392;9.976;2022-12-20T10:27:13;32.67;;;28.88;;
39864;SDS011;25538;48.392;9.976;2022-12-20T10:29:42;30.08;;;26.90;;
39864;SDS011;25538;48.392;9.976;2022-12-20T10:32:11;30.67;;;26.95;;
39864;SDS011;25538;48.392;9.976;2022-12-20T10:35:19;31.15;;;25.95;;
39864;SDS011;25538;48.392;9.976;2022-12-20T10:37:59;33.47;;;26.75;;
39864;SDS011;25538;48.392;9.976;2022-12-20T10:40:33;36.30;;;29.35;;
39864;SDS011;25538;48.392;9.976;2022-12-20T10:43:02;33.90;;;27.08;;
39864;SDS011;25538;48.392;9.976;2022-12-20T10:45:39;30.38;;;27.17;;
39864;SDS011;25538;48.392;9.976;2022-12-20T10:53:32;30.52;;;26.80;;
39864;SDS011;25538;48.392;9.976;2022-12-20T10:56:10;30.47;;;27.27;;
39864;SDS011;25538;48.392;9.976;2022-12-20T11:01:30;29.65;;;26.45;;
39864;SDS011;25538;48.392;9.976;2022-12-20T11:04:04;32.00;;;28.70;;
39864;SDS011;25538;48.392;9.976;2022-12-20T11:06:44;28.95;;;25.85;;
39864;SDS011;25538;48.392;9.976;2022-12-20T11:14:25;28.40;;;25.53;;
39864;SDS011;25538;48.392;9.976;2022-12-20T11:16:52;30.08;;;26.92;;
39864;SDS011;25538;48.392;9.976;2022-12-20T11:19:28;28.48;;;25.55;;
39864;SDS011;25538;48.392;9.976;2022-12-20T11:22:10;27.33;;;24.58;;
39864;SDS011;25538;48.392;9.976;2022-12-20T11:24:41;28.30;;;25.38;;
39864;SDS011;25538;48.392;9.976;2022-12-20T11:27:27;27.83;;;24.98;;
39864;SDS011;25538;48.392;9.976;2022-12-20T11:30:18;29.70;;;26.15;;
39864;SDS011;25538;48.392;9.976;2022-12-20T11:33:21;28.90;;;25.80;;
39864;SDS011;25538;48.392;9.976;2022-12-20T11:47:02;29.10;;;26.00;;
39864;SDS011;25538;48.392;9.976;2022-12-20T11:55:06;32.08;;;27.58;;
39864;SDS011;25538;48.392;9.976;2022-12-20T11:57:49;34.85;;;28.20;;
39864;SDS011;25538;48.392;9.976;2022-12-20T12:00:26;29.75;;;26.73;;
39864;SDS011;25538;48.392;9.976;2022-12-20T12:02:55;29.40;;;26.35;;
39864;SDS011;25538;48.392;9.976;2022-12-20T12:05:32;30.60;;;27.38;;
39864;SDS011;25538;48.392;9.976;2022-12-20T12:08:10;29.42;;;26.27;;
39864;SDS011;25538;48.392;9.976;2022-12-20T12:11:05;29.77;;;26.60;;
39864;SDS011;25538;48.392;9.976;2022-12-20T12:13:37;33.13;;;28.45;;
39864;SDS011;25538;48.392;9.976;2022-12-20T12:16:05;29.23;;;26.05;;
39864;SDS011;25538;48.392;9.976;2022-12-20T12:18:51;32.28;;;28.83;;
39864;SDS011;25538;48.392;9.976;2022-12-20T12:26:14;29.70;;;26.20;;
39864;SDS011;25538;48.392;9.976;2022-12-20T12:28:49;28.65;;;25.67;;
39864;SDS011;25538;48.392;9.976;2022-12-20T12:31:21;30.08;;;26.92;;
39864;SDS011;25538;48.392;9.976;2022-12-20T12:34:19;31.30;;;28.00;;
39864;SDS011;25538;48.392;9.976;2022-12-20T12:42:45;30.13;;;26.17;;
39864;SDS011;25538;48.392;9.976;2022-12-20T12:45:36;29.38;;;26.33;;
39864;SDS011;25538;48.392;9.976;2022-12-20T12:50:52;31.42;;;27.73;;
39864;SDS011;25538;48.392;9.976;2022-12-20T12:56:43;31.10;;;27.75;;
39864;SDS011;25538;48.392;9.976;2022-12-20T13:01:46;34.95;;;27.92;;
39864;SDS011;25538;48.392;9.976;2022-12-20T13:11:52;33.58;;;28.67;;
39864;SDS011;25538;48.392;9.976;2022-12-20T13:16:45;35.13;;;29.37;;
39864;SDS011;25538;48.392;9.976;2022-12-20T13:21:57;32.53;;;29.00;;
39864;SDS011;25538;48.392;9.976;2022-12-20T13:40:27;33.10;;;28.73;;
39864;SDS011;25538;48.392;9.976;2022-12-20T13:43:06;32.80;;;27.95;;
39864;SDS011;25538;48.392;9.976;2022-12-20T13:48:31;36.10;;;31.55;;
39864;SDS011;25538;48.392;9.976;2022-12-20T13:51:06;30.55;;;27.55;;
39864;SDS011;25538;48.392;9.976;2022-12-20T13:53:33;30.48;;;27.48;;
39864;SDS011;25538;48.392;9.976;2022-12-20T13:59:13;29.20;;;26.02;;
39864;SDS011;25538;48.392;9.976;2022-12-20T14:01:47;30.20;;;26.88;;
39864;SDS011;25538;48.392;9.976;2022-12-20T14:04:14;34.28;;;30.58;;
39864;SDS011;25538;48.392;9.976;2022-12-20T14:06:41;31.85;;;28.40;;
39864;SDS011;25538;48.392;9.976;2022-12-20T14:09:25;32.73;;;28.40;;
39864;SDS011;25538;48.392;9.976;2022-12-20T14:11:54;28.23;;;25.08;;
39864;SDS011;25538;48.392;9.976;2022-12-20T14:14:26;32.10;;;28.65;;
39864;SDS011;25538;48.392;9.976;2022-12-20T14:16:52;34.17;;;30.00;;
39864;SDS011;25538;48.392;9.976;2022-12-20T14:19:18;55.53;;;36.77;;
39864;SDS011;25538;48.392;9.976;2022-12-20T14:21:44;32.17;;;28.70;;
39864;SDS011;25538;48.392;9.976;2022-12-20T14:24:15;35.65;;;29.42;;
39864;SDS011;25538;48.392;9.976;2022-12-20T14:26:44;33.60;;;28.80;;
39864;SDS011;25538;48.392;9.976;2022-12-20T14:29:16;33.85;;;30.25;;
39864;SDS011;25538;48.392;9.976;2022-12-20T14:31:47;34.28;;;30.73;;
39864;SDS011;25538;48.392;9.976;2022-12-20T14:34:17;36.17;;;30.50;;
39864;SDS011;25538;48.392;9.976;2022-12-20T14:36:47;36.47;;;31.55;;
39864;SDS011;25538;48.392;9.976;2022-12-20T14:39:30;36.40;;;30.33;;
39864;SDS011;25538;48.392;9.976;2022-12-20T14:41:59;40.90;;;31.73;;
39864;SDS011;25538;48.392;9.976;2022-12-20T14:44:31;38.75;;;32.13;;
39864;SDS011;25538;48.392;9.976;2022-12-20T14:46:58;42.53;;;31.17;;
39864;SDS011;25538;48.392;9.976;2022-12-20T14:49:27;40.15;;;33.22;;
39864;SDS011;25538;48.392;9.976;2022-12-20T15:13:19;31.98;;;28.35;;
39864;SDS011;25538;48.392;9.976;2022-12-20T15:15:47;34.50;;;29.55;;
39864;SDS011;25538;48.392;9.976;2022-12-20T15:18:14;26.17;;;23.47;;
39864;SDS011;25538;48.392;9.976;2022-12-20T15:20:42;29.33;;;25.55;;
39864;SDS011;25538;48.392;9.976;2022-12-20T15:23:11;32.28;;;26.30;;
39864;SDS011;25538;48.392;9.976;2022-12-20T15:25:42;29.27;;;26.20;;
39864;SDS011;25538;48.392;9.976;2022-12-20T15:28:12;28.30;;;25.20;;
39864;SDS011;25538;48.392;9.976;2022-12-20T15:30:41;32.53;;;29.23;;
39864;SDS011;25538;48.392;9.976;2022-12-20T15:33:08;30.95;;;27.83;;
39864;SDS011;25538;48.392;9.976;2022-12-20T15:35:49;30.70;;;26.88;;
39864;SDS011;25538;48.392;9.976;2022-12-20T15:38:20;28.60;;;25.02;;
39864;SDS011;25538;48.392;9.976;2022-12-20T15:40:51;28.40;;;25.38;;
39864;SDS011;25538;48.392;9.976;2022-12-20T15:43:20;29.90;;;25.95;;
39864;SDS011;25538;48.392;9.976;2022-12-20T15:45:51;26.95;;;24.15;;
39864;SDS011;25538;48.392;9.976;2022-12-20T15:48:19;29.60;;;25.55;;
39864;SDS011;25538;48.392;9.976;2022-12-20T15:50:51;30.02;;;25.60;;
39864;SDS011;25538;48.392;9.976;2022-12-20T15:53:20;29.63;;;26.48;;
39864;SDS011;25538;48.392;9.976;2022-12-20T15:55:52;31.05;;;27.65;;
39864;SDS011;25538;48.392;9.976;2022-12-20T15:58:21;34.20;;;28.55;;
39864;SDS011;25538;48.392;9.976;2022-12-20T16:00:48;30.98;;;27.63;;
39864;SDS011;25538;48.392;9.976;2022-12-20T16:03:18;31.45;;;28.23;;
39864;SDS011;25538;48.392;9.976;2022-12-20T16:05:47;32.10;;;28.67;;
39864;SDS011;25538;48.392;9.976;2022-12-20T16:10:50;33.08;;;26.65;;
39864;SDS011;25538;48.392;9.976;2022-12-20T16:13:22;29.45;;;26.40;;
39864;SDS011;25538;48.392;9.976;2022-12-20T16:15:50;27.52;;;24.55;;
39864;SDS011;25538;48.392;9.976;2022-12-20T16:18:16;34.33;;;29.25;;
39864;SDS011;25538;48.392;9.976;2022-12-20T16:20:42;32.50;;;27.17;;
39864;SDS011;25538;48.392;9.976;2022-12-20T16:23:20;29.77;;;26.67;;
39864;SDS011;25538;48.392;9.976;2022-12-20T16:25:49;31.63;;;26.98;;
39864;SDS011;25538;48.392;9.976;2022-12-20T16:28:15;31.80;;;28.13;;
39864;SDS011;25538;48.392;9.976;2022-12-20T16:30:42;30.58;;;26.90;;
39864;SDS011;25538;48.392;9.976;2022-12-20T16:33:18;28.90;;;25.77;;
39864;SDS011;25538;48.392;9.976;2022-12-20T16:35:45;27.70;;;24.80;;
39864;SDS011;25538;48.392;9.976;2022-12-20T16:38:11;25.80;;;23.10;;
39864;SDS011;25538;48.392;9.976;2022-12-20T16:40:37;25.50;;;22.67;;
39864;SDS011;25538;48.392;9.976;2022-12-20T16:43:03;27.57;;;24.30;;
39864;SDS011;25538;48.392;9.976;2022-12-20T16:45:30;32.90;;;27.35;;
39864;SDS011;25538;48.392;9.976;2022-12-20T16:47:56;25.85;;;23.13;;
39864;SDS011;25538;48.392;9.976;2022-12-20T16:50:24;29.77;;;26.58;;
39864;SDS011;25538;48.392;9.976;2022-12-20T16:52:52;28.25;;;25.23;;
39864;SDS011;25538;48.392;9.976;2022-12-20T16:55:22;31.87;;;26.90;;